sensor_id;sensor_type;location;lat;lon;timestamp;temperature;humidity
9497;DHT22;4786;51.270;4.456;2023-08-01T00:01:56;17.80;99.90
9497;DHT22;4786;51.270;4.456;2023-08-01T00:04:22;17.70;99.90
9497;DHT22;4786;51.270;4.456;2023-08-01T00:06:48;17.70;99.90
9497;DHT22;4786;51.270;4.456;2023-08-01T00:09:14;17.70;99.90
9497;DHT22;4786;51.270;4.456;2023-08-01T00:11:40;17.70;99.90
9497;DHT22;4786;51.270;4.456;2023-08-01T00:14:05;17.70;99.90
9497;DHT22;4786;51.270;4.456;2023-08-01T00:16:32;17.70;99.90
9497;DHT22;4786;51.270;4.456;2023-08-01T00:19:00;17.70;99.90
9497;DHT22;4786;51.270;4.456;2023-08-01T00:21:26;17.70;99.90
9497;DHT22;4786;51.270;4.456;2023-08-01T00:23:52;17.70;99.90
9497;DHT22;4786;51.270;4.456;2023-08-01T00:26:18;17.70;99.90
9497;DHT22;4786;51.270;4.456;2023-08-01T00:28:44;17.80;99.90
9497;DHT22;4786;51.270;4.456;2023-08-01T00:31:09;17.70;99.90
9497;DHT22;4786;51.270;4.456;2023-08-01T00:33:36;17.70;99.90
9497;DHT22;4786;51.270;4.456;2023-08-01T00:36:02;17.70;99.90
9497;DHT22;4786;51.270;4.456;2023-08-01T00:38:28;17.70;99.90
9497;DHT22;4786;51.270;4.456;2023-08-01T00:40:55;17.70;99.90
9497;DHT22;4786;51.270;4.456;2023-08-01T00:43:20;17.70;99.90
9497;DHT22;4786;51.270;4.456;2023-08-01T00:45:47;17.70;99.90
9497;DHT22;4786;51.270;4.456;2023-08-01T00:48:13;17.70;99.90
9497;DHT22;4786;51.270;4.456;2023-08-01T00:50:39;17.60;99.90
9497;DHT22;4786;51.270;4.456;2023-08-01T00:53:05;17.60;99.90
9497;DHT22;4786;51.270;4.456;2023-08-01T00:55:32;17.50;99.90
9497;DHT22;4786;51.270;4.456;2023-08-01T00:58:00;17.50;99.90
9497;DHT22;4786;51.270;4.456;2023-08-01T01:00:26;17.50;99.90
9497;DHT22;4786;51.270;4.456;2023-08-01T01:02:52;17.40;99.90
9497;DHT22;4786;51.270;4.456;2023-08-01T01:05:19;17.40;99.90
9497;DHT22;4786;51.270;4.456;2023-08-01T01:07:46;17.40;99.90
9497;DHT22;4786;51.270;4.456;2023-08-01T01:10:12;17.40;99.90
9497;DHT22;4786;51.270;4.456;2023-08-01T01:12:38;17.40;99.90
9497;DHT22;4786;51.270;4.456;2023-08-01T01:15:04;17.30;99.90
9497;DHT22;4786;51.270;4.456;2023-08-01T01:17:30;17.30;99.90
9497;DHT22;4786;51.270;4.456;2023-08-01T01:19:56;17.30;99.90
9497;DHT22;4786;51.270;4.456;2023-08-01T01:22:23;17.20;99.90
9497;DHT22;4786;51.270;4.456;2023-08-01T01:24:49;17.30;99.90
9497;DHT22;4786;51.270;4.456;2023-08-01T01:27:17;17.30;99.90
9497;DHT22;4786;51.270;4.456;2023-08-01T01:29:43;17.30;99.90
9497;DHT22;4786;51.270;4.456;2023-08-01T01:32:11;17.30;99.90
9497;DHT22;4786;51.270;4.456;2023-08-01T01:34:37;17.30;99.90
9497;DHT22;4786;51.270;4.456;2023-08-01T01:37:03;17.30;99.90
9497;DHT22;4786;51.270;4.456;2023-08-01T01:39:30;17.30;99.90
9497;DHT22;4786;51.270;4.456;2023-08-01T01:41:55;17.30;99.90
9497;DHT22;4786;51.270;4.456;2023-08-01T01:44:22;17.30;99.90
9497;DHT22;4786;51.270;4.456;2023-08-01T01:46:48;17.30;99.90
9497;DHT22;4786;51.270;4.456;2023-08-01T01:49:14;17.30;99.90
9497;DHT22;4786;51.270;4.456;2023-08-01T01:51:40;17.30;99.90
9497;DHT22;4786;51.270;4.456;2023-08-01T01:54:06;17.30;99.90
9497;DHT22;4786;51.270;4.456;2023-08-01T01:56:32;17.30;99.90
9497;DHT22;4786;51.270;4.456;2023-08-01T01:58:59;17.20;99.90
9497;DHT22;4786;51.270;4.456;2023-08-01T02:01:25;17.20;99.90
9497;DHT22;4786;51.270;4.456;2023-08-01T02:03:51;17.20;99.90
9497;DHT22;4786;51.270;4.456;2023-08-01T02:06:17;17.20;99.90
9497;DHT22;4786;51.270;4.456;2023-08-01T02:08:43;17.30;99.90
9497;DHT22;4786;51.270;4.456;2023-08-01T02:11:09;17.30;99.90
9497;DHT22;4786;51.270;4.456;2023-08-01T02:13:35;17.30;99.90
9497;DHT22;4786;51.270;4.456;2023-08-01T02:16:01;17.30;99.90
9497;DHT22;4786;51.270;4.456;2023-08-01T02:18:27;17.30;99.90
9497;DHT22;4786;51.270;4.456;2023-08-01T02:20:53;17.30;99.90
9497;DHT22;4786;51.270;4.456;2023-08-01T02:23:19;17.30;99.90
9497;DHT22;4786;51.270;4.456;2023-08-01T02:25:45;17.30;99.90
9497;DHT22;4786;51.270;4.456;2023-08-01T02:28:11;17.30;99.90
9497;DHT22;4786;51.270;4.456;2023-08-01T02:30:38;17.30;99.90
9497;DHT22;4786;51.270;4.456;2023-08-01T02:33:04;17.30;99.90
9497;DHT22;4786;51.270;4.456;2023-08-01T02:35:30;17.30;99.90
9497;DHT22;4786;51.270;4.456;2023-08-01T02:37:56;17.30;99.90
9497;DHT22;4786;51.270;4.456;2023-08-01T02:40:22;17.30;99.90
9497;DHT22;4786;51.270;4.456;2023-08-01T02:42:48;17.30;99.90
9497;DHT22;4786;51.270;4.456;2023-08-01T02:45:13;17.30;99.90
9497;DHT22;4786;51.270;4.456;2023-08-01T02:47:39;17.30;99.90
9497;DHT22;4786;51.270;4.456;2023-08-01T02:50:05;17.30;99.90
9497;DHT22;4786;51.270;4.456;2023-08-01T02:52:34;17.30;99.90
9497;DHT22;4786;51.270;4.456;2023-08-01T02:55:00;17.30;99.90
9497;DHT22;4786;51.270;4.456;2023-08-01T02:57:27;17.30;99.90
9497;DHT22;4786;51.270;4.456;2023-08-01T02:59:52;17.30;99.90
9497;DHT22;4786;51.270;4.456;2023-08-01T03:02:19;17.30;99.90
9497;DHT22;4786;51.270;4.456;2023-08-01T03:04:44;17.30;99.90
9497;DHT22;4786;51.270;4.456;2023-08-01T03:07:10;17.30;99.90
9497;DHT22;4786;51.270;4.456;2023-08-01T03:09:36;17.30;99.90
9497;DHT22;4786;51.270;4.456;2023-08-01T03:12:02;17.30;99.90
9497;DHT22;4786;51.270;4.456;2023-08-01T03:14:28;17.30;99.90
9497;DHT22;4786;51.270;4.456;2023-08-01T03:16:54;17.30;99.90
9497;DHT22;4786;51.270;4.456;2023-08-01T03:19:20;17.30;99.90
9497;DHT22;4786;51.270;4.456;2023-08-01T03:21:46;17.30;99.90
9497;DHT22;4786;51.270;4.456;2023-08-01T03:24:12;17.20;99.90
9497;DHT22;4786;51.270;4.456;2023-08-01T03:26:38;17.20;99.90
9497;DHT22;4786;51.270;4.456;2023-08-01T03:29:04;17.10;99.90
9497;DHT22;4786;51.270;4.456;2023-08-01T03:31:31;17.10;99.90
9497;DHT22;4786;51.270;4.456;2023-08-01T03:33:57;17.10;99.90
9497;DHT22;4786;51.270;4.456;2023-08-01T03:36:26;17.10;99.90
9497;DHT22;4786;51.270;4.456;2023-08-01T03:38:51;17.20;99.90
9497;DHT22;4786;51.270;4.456;2023-08-01T03:41:18;17.20;99.90
9497;DHT22;4786;51.270;4.456;2023-08-01T03:43:44;17.20;99.90
9497;DHT22;4786;51.270;4.456;2023-08-01T03:46:10;17.10;99.90
9497;DHT22;4786;51.270;4.456;2023-08-01T03:48:36;17.10;99.90
9497;DHT22;4786;51.270;4.456;2023-08-01T03:51:02;17.10;99.90
9497;DHT22;4786;51.270;4.456;2023-08-01T03:53:29;17.10;99.90
9497;DHT22;4786;51.270;4.456;2023-08-01T03:55:55;17.10;99.90
9497;DHT22;4786;51.270;4.456;2023-08-01T03:58:21;17.10;99.90
9497;DHT22;4786;51.270;4.456;2023-08-01T04:00:48;17.10;99.90
9497;DHT22;4786;51.270;4.456;2023-08-01T04:03:13;17.10;99.90
9497;DHT22;4786;51.270;4.456;2023-08-01T04:05:40;17.10;99.90
9497;DHT22;4786;51.270;4.456;2023-08-01T04:08:08;17.10;99.90
9497;DHT22;4786;51.270;4.456;2023-08-01T04:10:35;17.10;99.90
9497;DHT22;4786;51.270;4.456;2023-08-01T04:13:01;17.10;99.90
9497;DHT22;4786;51.270;4.456;2023-08-01T04:15:27;17.10;99.90
9497;DHT22;4786;51.270;4.456;2023-08-01T04:17:53;17.10;99.90
9497;DHT22;4786;51.270;4.456;2023-08-01T04:20:19;17.20;99.90
9497;DHT22;4786;51.270;4.456;2023-08-01T04:22:44;17.10;99.90
9497;DHT22;4786;51.270;4.456;2023-08-01T04:25:10;17.10;99.90
9497;DHT22;4786;51.270;4.456;2023-08-01T04:27:36;17.20;99.90
9497;DHT22;4786;51.270;4.456;2023-08-01T04:30:03;17.20;99.90
9497;DHT22;4786;51.270;4.456;2023-08-01T04:32:28;17.10;99.90
9497;DHT22;4786;51.270;4.456;2023-08-01T04:34:55;17.20;99.90
9497;DHT22;4786;51.270;4.456;2023-08-01T04:37:21;17.10;99.90
9497;DHT22;4786;51.270;4.456;2023-08-01T04:39:48;17.20;99.90
9497;DHT22;4786;51.270;4.456;2023-08-01T04:42:14;17.20;99.90
9497;DHT22;4786;51.270;4.456;2023-08-01T04:44:40;17.20;99.90
9497;DHT22;4786;51.270;4.456;2023-08-01T04:47:05;17.10;99.90
9497;DHT22;4786;51.270;4.456;2023-08-01T04:49:31;17.10;99.90
9497;DHT22;4786;51.270;4.456;2023-08-01T04:51:57;17.20;99.90
9497;DHT22;4786;51.270;4.456;2023-08-01T04:54:23;17.10;99.90
9497;DHT22;4786;51.270;4.456;2023-08-01T04:56:48;17.10;99.90
9497;DHT22;4786;51.270;4.456;2023-08-01T04:59:15;17.10;99.90
9497;DHT22;4786;51.270;4.456;2023-08-01T05:01:40;17.20;99.90
9497;DHT22;4786;51.270;4.456;2023-08-01T05:04:07;17.20;99.90
9497;DHT22;4786;51.270;4.456;2023-08-01T05:06:32;17.20;99.90
9497;DHT22;4786;51.270;4.456;2023-08-01T05:08:59;17.20;99.90
9497;DHT22;4786;51.270;4.456;2023-08-01T05:11:25;17.30;99.90
9497;DHT22;4786;51.270;4.456;2023-08-01T05:13:50;17.30;99.90
9497;DHT22;4786;51.270;4.456;2023-08-01T05:16:16;17.30;99.90
9497;DHT22;4786;51.270;4.456;2023-08-01T05:18:43;17.30;99.90
9497;DHT22;4786;51.270;4.456;2023-08-01T05:21:09;17.30;99.90
9497;DHT22;4786;51.270;4.456;2023-08-01T05:23:34;17.30;99.90
9497;DHT22;4786;51.270;4.456;2023-08-01T05:26:00;17.30;99.90
9497;DHT22;4786;51.270;4.456;2023-08-01T05:28:27;17.30;99.90
9497;DHT22;4786;51.270;4.456;2023-08-01T05:30:53;17.40;99.90
9497;DHT22;4786;51.270;4.456;2023-08-01T05:33:19;17.30;99.90
9497;DHT22;4786;51.270;4.456;2023-08-01T05:35:46;17.40;99.90
9497;DHT22;4786;51.270;4.456;2023-08-01T05:38:11;17.30;99.90
9497;DHT22;4786;51.270;4.456;2023-08-01T05:40:37;17.30;99.90
9497;DHT22;4786;51.270;4.456;2023-08-01T05:43:03;17.30;99.90
9497;DHT22;4786;51.270;4.456;2023-08-01T05:45:30;17.30;99.90
9497;DHT22;4786;51.270;4.456;2023-08-01T05:47:55;17.30;99.90
9497;DHT22;4786;51.270;4.456;2023-08-01T05:50:22;17.40;99.90
9497;DHT22;4786;51.270;4.456;2023-08-01T05:52:48;17.40;99.90
9497;DHT22;4786;51.270;4.456;2023-08-01T05:55:14;17.60;99.90
9497;DHT22;4786;51.270;4.456;2023-08-01T05:57:41;17.60;99.90
9497;DHT22;4786;51.270;4.456;2023-08-01T06:00:07;17.60;99.90
9497;DHT22;4786;51.270;4.456;2023-08-01T06:02:33;17.70;99.90
9497;DHT22;4786;51.270;4.456;2023-08-01T06:04:58;17.60;99.90
9497;DHT22;4786;51.270;4.456;2023-08-01T06:07:24;17.60;99.90
9497;DHT22;4786;51.270;4.456;2023-08-01T06:09:51;17.60;99.90
9497;DHT22;4786;51.270;4.456;2023-08-01T06:12:19;17.60;99.90
9497;DHT22;4786;51.270;4.456;2023-08-01T06:14:46;17.60;99.90
9497;DHT22;4786;51.270;4.456;2023-08-01T06:17:12;17.60;99.90
9497;DHT22;4786;51.270;4.456;2023-08-01T06:19:38;17.50;99.90
9497;DHT22;4786;51.270;4.456;2023-08-01T06:22:04;17.50;99.90
9497;DHT22;4786;51.270;4.456;2023-08-01T06:24:31;17.60;99.90
9497;DHT22;4786;51.270;4.456;2023-08-01T06:26:56;17.70;99.90
9497;DHT22;4786;51.270;4.456;2023-08-01T06:29:22;17.70;99.90
9497;DHT22;4786;51.270;4.456;2023-08-01T06:31:48;17.80;99.90
9497;DHT22;4786;51.270;4.456;2023-08-01T06:34:14;17.90;99.90
9497;DHT22;4786;51.270;4.456;2023-08-01T06:36:40;18.10;99.90
9497;DHT22;4786;51.270;4.456;2023-08-01T06:39:07;18.20;99.90
9497;DHT22;4786;51.270;4.456;2023-08-01T06:41:32;18.40;99.90
9497;DHT22;4786;51.270;4.456;2023-08-01T06:43:59;18.50;99.90
9497;DHT22;4786;51.270;4.456;2023-08-01T06:46:25;18.60;99.90
9497;DHT22;4786;51.270;4.456;2023-08-01T06:48:50;18.50;99.90
9497;DHT22;4786;51.270;4.456;2023-08-01T06:51:16;18.40;99.90
9497;DHT22;4786;51.270;4.456;2023-08-01T06:53:42;18.30;99.90
9497;DHT22;4786;51.270;4.456;2023-08-01T06:56:08;18.20;99.90
9497;DHT22;4786;51.270;4.456;2023-08-01T06:58:34;18.20;99.90
9497;DHT22;4786;51.270;4.456;2023-08-01T07:01:00;18.00;99.90
9497;DHT22;4786;51.270;4.456;2023-08-01T07:03:25;18.00;99.90
9497;DHT22;4786;51.270;4.456;2023-08-01T07:05:52;18.20;99.90
9497;DHT22;4786;51.270;4.456;2023-08-01T07:08:18;18.50;99.90
9497;DHT22;4786;51.270;4.456;2023-08-01T07:10:43;18.90;99.90
9497;DHT22;4786;51.270;4.456;2023-08-01T07:13:11;19.20;99.90
9497;DHT22;4786;51.270;4.456;2023-08-01T07:15:37;19.20;99.90
9497;DHT22;4786;51.270;4.456;2023-08-01T07:18:03;19.30;99.90
9497;DHT22;4786;51.270;4.456;2023-08-01T07:20:29;19.40;99.90
9497;DHT22;4786;51.270;4.456;2023-08-01T07:22:56;19.30;99.90
9497;DHT22;4786;51.270;4.456;2023-08-01T07:25:21;19.40;99.90
9497;DHT22;4786;51.270;4.456;2023-08-01T07:27:47;19.40;99.90
9497;DHT22;4786;51.270;4.456;2023-08-01T07:30:13;19.40;99.90
9497;DHT22;4786;51.270;4.456;2023-08-01T07:32:39;19.40;99.90
9497;DHT22;4786;51.270;4.456;2023-08-01T07:35:06;19.40;99.90
9497;DHT22;4786;51.270;4.456;2023-08-01T07:37:33;19.30;99.90
9497;DHT22;4786;51.270;4.456;2023-08-01T07:39:59;19.30;99.90
9497;DHT22;4786;51.270;4.456;2023-08-01T07:42:25;19.30;99.90
9497;DHT22;4786;51.270;4.456;2023-08-01T07:44:51;19.20;99.90
9497;DHT22;4786;51.270;4.456;2023-08-01T07:47:17;19.10;99.90
9497;DHT22;4786;51.270;4.456;2023-08-01T07:49:42;19.10;99.90
9497;DHT22;4786;51.270;4.456;2023-08-01T07:52:08;19.00;99.90
9497;DHT22;4786;51.270;4.456;2023-08-01T07:54:34;19.00;99.90
9497;DHT22;4786;51.270;4.456;2023-08-01T07:57:00;19.00;99.90
9497;DHT22;4786;51.270;4.456;2023-08-01T07:59:25;19.00;99.90
9497;DHT22;4786;51.270;4.456;2023-08-01T08:01:51;19.10;99.90
9497;DHT22;4786;51.270;4.456;2023-08-01T08:04:18;19.30;99.90
9497;DHT22;4786;51.270;4.456;2023-08-01T08:06:44;19.30;99.90
9497;DHT22;4786;51.270;4.456;2023-08-01T08:09:10;19.30;99.90
9497;DHT22;4786;51.270;4.456;2023-08-01T08:11:36;19.40;99.90
9497;DHT22;4786;51.270;4.456;2023-08-01T08:14:02;19.50;99.90
9497;DHT22;4786;51.270;4.456;2023-08-01T08:16:27;19.80;99.90
9497;DHT22;4786;51.270;4.456;2023-08-01T08:18:53;20.10;99.90
9497;DHT22;4786;51.270;4.456;2023-08-01T08:21:19;20.10;99.90
9497;DHT22;4786;51.270;4.456;2023-08-01T08:23:45;20.10;99.90
9497;DHT22;4786;51.270;4.456;2023-08-01T08:26:11;20.00;99.90
9497;DHT22;4786;51.270;4.456;2023-08-01T08:28:38;19.90;99.90
9497;DHT22;4786;51.270;4.456;2023-08-01T08:31:05;19.90;99.90
9497;DHT22;4786;51.270;4.456;2023-08-01T08:33:30;20.10;99.90
9497;DHT22;4786;51.270;4.456;2023-08-01T08:35:56;20.20;99.90
9497;DHT22;4786;51.270;4.456;2023-08-01T08:38:22;20.40;99.90
9497;DHT22;4786;51.270;4.456;2023-08-01T08:41:32;20.40;99.90
9497;DHT22;4786;51.270;4.456;2023-08-01T08:43:57;20.30;99.90
9497;DHT22;4786;51.270;4.456;2023-08-01T08:46:29;20.30;99.90
9497;DHT22;4786;51.270;4.456;2023-08-01T08:48:57;20.10;99.90
9497;DHT22;4786;51.270;4.456;2023-08-01T08:51:26;20.00;99.90
9497;DHT22;4786;51.270;4.456;2023-08-01T08:53:53;19.80;99.90
9497;DHT22;4786;51.270;4.456;2023-08-01T08:56:20;19.70;99.90
9497;DHT22;4786;51.270;4.456;2023-08-01T08:58:46;19.70;99.90
9497;DHT22;4786;51.270;4.456;2023-08-01T09:01:13;19.90;99.90
9497;DHT22;4786;51.270;4.456;2023-08-01T09:03:39;20.00;99.90
9497;DHT22;4786;51.270;4.456;2023-08-01T09:06:24;20.00;99.90
9497;DHT22;4786;51.270;4.456;2023-08-01T09:08:58;20.10;99.90
9497;DHT22;4786;51.270;4.456;2023-08-01T09:11:26;20.10;99.90
9497;DHT22;4786;51.270;4.456;2023-08-01T09:13:53;20.20;99.90
9497;DHT22;4786;51.270;4.456;2023-08-01T09:16:18;20.20;99.90
9497;DHT22;4786;51.270;4.456;2023-08-01T09:18:50;20.10;99.90
9497;DHT22;4786;51.270;4.456;2023-08-01T09:21:20;20.00;99.90
9497;DHT22;4786;51.270;4.456;2023-08-01T09:23:47;19.90;99.90
9497;DHT22;4786;51.270;4.456;2023-08-01T09:26:18;19.70;99.90
9497;DHT22;4786;51.270;4.456;2023-08-01T09:28:44;19.60;99.90
9497;DHT22;4786;51.270;4.456;2023-08-01T09:31:36;19.40;99.90
9497;DHT22;4786;51.270;4.456;2023-08-01T09:34:03;19.40;99.90
9497;DHT22;4786;51.270;4.456;2023-08-01T09:36:33;19.40;99.90
9497;DHT22;4786;51.270;4.456;2023-08-01T09:39:03;19.40;99.90
9497;DHT22;4786;51.270;4.456;2023-08-01T09:41:30;19.50;99.90
9497;DHT22;4786;51.270;4.456;2023-08-01T09:43:57;19.50;99.90
9497;DHT22;4786;51.270;4.456;2023-08-01T09:46:23;19.70;99.90
9497;DHT22;4786;51.270;4.456;2023-08-01T09:48:49;19.70;99.90
9497;DHT22;4786;51.270;4.456;2023-08-01T09:51:17;19.80;99.90
9497;DHT22;4786;51.270;4.456;2023-08-01T09:56:27;19.90;99.90
9497;DHT22;4786;51.270;4.456;2023-08-01T09:58:55;20.00;99.90
9497;DHT22;4786;51.270;4.456;2023-08-01T10:01:24;20.10;99.90
9497;DHT22;4786;51.270;4.456;2023-08-01T10:03:52;20.00;99.90
9497;DHT22;4786;51.270;4.456;2023-08-01T10:06:20;20.00;99.90
9497;DHT22;4786;51.270;4.456;2023-08-01T10:08:48;19.90;99.90
9497;DHT22;4786;51.270;4.456;2023-08-01T10:11:18;19.90;99.90
9497;DHT22;4786;51.270;4.456;2023-08-01T10:13:45;20.20;99.90
9497;DHT22;4786;51.270;4.456;2023-08-01T10:16:13;20.50;99.90
9497;DHT22;4786;51.270;4.456;2023-08-01T10:18:39;21.10;99.90
9497;DHT22;4786;51.270;4.456;2023-08-01T10:21:07;21.60;99.90
9497;DHT22;4786;51.270;4.456;2023-08-01T10:23:34;21.90;99.90
9497;DHT22;4786;51.270;4.456;2023-08-01T10:26:02;22.00;99.90
9497;DHT22;4786;51.270;4.456;2023-08-01T10:28:36;22.10;99.90
9497;DHT22;4786;51.270;4.456;2023-08-01T10:31:12;22.30;99.90
9497;DHT22;4786;51.270;4.456;2023-08-01T10:33:41;22.30;99.90
9497;DHT22;4786;51.270;4.456;2023-08-01T10:36:23;22.20;99.90
9497;DHT22;4786;51.270;4.456;2023-08-01T10:38:52;22.00;99.90
9497;DHT22;4786;51.270;4.456;2023-08-01T10:41:45;21.80;99.90
9497;DHT22;4786;51.270;4.456;2023-08-01T10:44:13;21.50;99.90
9497;DHT22;4786;51.270;4.456;2023-08-01T10:49:11;21.50;99.90
9497;DHT22;4786;51.270;4.456;2023-08-01T10:51:37;21.50;99.90
9497;DHT22;4786;51.270;4.456;2023-08-01T10:54:03;21.50;99.90
9497;DHT22;4786;51.270;4.456;2023-08-01T10:56:29;21.70;99.90
9497;DHT22;4786;51.270;4.456;2023-08-01T10:58:57;21.80;99.90
9497;DHT22;4786;51.270;4.456;2023-08-01T11:01:23;21.90;99.90
9497;DHT22;4786;51.270;4.456;2023-08-01T11:03:51;22.10;99.90
9497;DHT22;4786;51.270;4.456;2023-08-01T11:06:17;22.30;99.90
9497;DHT22;4786;51.270;4.456;2023-08-01T11:08:43;22.50;99.90
9497;DHT22;4786;51.270;4.456;2023-08-01T11:11:14;22.70;99.90
9497;DHT22;4786;51.270;4.456;2023-08-01T11:13:40;22.60;99.90
9497;DHT22;4786;51.270;4.456;2023-08-01T11:16:06;22.50;99.90
9497;DHT22;4786;51.270;4.456;2023-08-01T11:18:45;22.40;99.90
9497;DHT22;4786;51.270;4.456;2023-08-01T11:21:10;22.40;99.90
9497;DHT22;4786;51.270;4.456;2023-08-01T11:23:37;22.50;99.90
9497;DHT22;4786;51.270;4.456;2023-08-01T11:26:09;22.50;99.90
9497;DHT22;4786;51.270;4.456;2023-08-01T11:28:35;22.60;99.90
9497;DHT22;4786;51.270;4.456;2023-08-01T11:31:10;22.70;99.90
9497;DHT22;4786;51.270;4.456;2023-08-01T11:33:36;22.80;99.90
9497;DHT22;4786;51.270;4.456;2023-08-01T11:36:03;22.80;99.90
9497;DHT22;4786;51.270;4.456;2023-08-01T11:38:30;22.70;99.90
9497;DHT22;4786;51.270;4.456;2023-08-01T11:40:57;22.60;99.90
9497;DHT22;4786;51.270;4.456;2023-08-01T11:43:23;22.30;99.90
9497;DHT22;4786;51.270;4.456;2023-08-01T11:45:54;22.10;99.90
9497;DHT22;4786;51.270;4.456;2023-08-01T11:48:23;21.90;99.90
9497;DHT22;4786;51.270;4.456;2023-08-01T11:50:56;21.80;99.90
9497;DHT22;4786;51.270;4.456;2023-08-01T11:53:23;21.80;99.90
9497;DHT22;4786;51.270;4.456;2023-08-01T11:55:50;22.00;99.90
9497;DHT22;4786;51.270;4.456;2023-08-01T12:01:04;22.20;99.90
9497;DHT22;4786;51.270;4.456;2023-08-01T12:03:30;22.30;99.90
9497;DHT22;4786;51.270;4.456;2023-08-01T12:06:04;22.40;99.90
9497;DHT22;4786;51.270;4.456;2023-08-01T12:08:31;22.50;99.90
9497;DHT22;4786;51.270;4.456;2023-08-01T12:11:01;22.70;99.90
9497;DHT22;4786;51.270;4.456;2023-08-01T12:13:27;22.90;99.90
9497;DHT22;4786;51.270;4.456;2023-08-01T12:15:55;23.20;99.90
9497;DHT22;4786;51.270;4.456;2023-08-01T12:18:27;23.10;99.90
9497;DHT22;4786;51.270;4.456;2023-08-01T12:20:53;23.30;99.90
9497;DHT22;4786;51.270;4.456;2023-08-01T12:23:20;23.50;99.90
9497;DHT22;4786;51.270;4.456;2023-08-01T12:25:46;23.80;99.90
9497;DHT22;4786;51.270;4.456;2023-08-01T12:28:14;23.80;99.90
9497;DHT22;4786;51.270;4.456;2023-08-01T12:30:41;23.60;99.90
9497;DHT22;4786;51.270;4.456;2023-08-01T12:33:09;23.50;99.90
9497;DHT22;4786;51.270;4.456;2023-08-01T12:35:39;23.40;99.90
9497;DHT22;4786;51.270;4.456;2023-08-01T12:38:06;23.20;99.90
9497;DHT22;4786;51.270;4.456;2023-08-01T12:40:33;23.00;99.90
9497;DHT22;4786;51.270;4.456;2023-08-01T12:42:59;22.80;99.90
9497;DHT22;4786;51.270;4.456;2023-08-01T12:45:25;22.80;99.90
9497;DHT22;4786;51.270;4.456;2023-08-01T12:47:51;22.80;99.90
9497;DHT22;4786;51.270;4.456;2023-08-01T12:50:17;22.90;99.90
9497;DHT22;4786;51.270;4.456;2023-08-01T12:52:43;23.00;99.90
9497;DHT22;4786;51.270;4.456;2023-08-01T12:55:09;23.10;99.90
9497;DHT22;4786;51.270;4.456;2023-08-01T12:57:35;23.10;99.90
9497;DHT22;4786;51.270;4.456;2023-08-01T13:00:01;22.90;99.90
9497;DHT22;4786;51.270;4.456;2023-08-01T13:02:28;22.80;99.90
9497;DHT22;4786;51.270;4.456;2023-08-01T13:04:53;22.60;99.90
9497;DHT22;4786;51.270;4.456;2023-08-01T13:07:20;22.60;99.90
9497;DHT22;4786;51.270;4.456;2023-08-01T13:09:45;22.80;99.90
9497;DHT22;4786;51.270;4.456;2023-08-01T13:12:11;23.00;99.90
9497;DHT22;4786;51.270;4.456;2023-08-01T13:14:36;23.20;99.90
9497;DHT22;4786;51.270;4.456;2023-08-01T13:17:03;23.10;99.90
9497;DHT22;4786;51.270;4.456;2023-08-01T13:19:30;22.80;99.90
9497;DHT22;4786;51.270;4.456;2023-08-01T13:21:55;22.80;99.90
9497;DHT22;4786;51.270;4.456;2023-08-01T13:24:21;22.60;99.90
9497;DHT22;4786;51.270;4.456;2023-08-01T13:26:47;22.50;99.90
9497;DHT22;4786;51.270;4.456;2023-08-01T13:29:13;22.50;99.90
9497;DHT22;4786;51.270;4.456;2023-08-01T13:31:38;22.60;99.90
9497;DHT22;4786;51.270;4.456;2023-08-01T13:34:04;22.70;99.90
9497;DHT22;4786;51.270;4.456;2023-08-01T13:36:30;22.70;99.90
9497;DHT22;4786;51.270;4.456;2023-08-01T13:38:56;22.90;99.90
9497;DHT22;4786;51.270;4.456;2023-08-01T13:41:22;23.00;99.90
9497;DHT22;4786;51.270;4.456;2023-08-01T13:43:48;23.10;99.90
9497;DHT22;4786;51.270;4.456;2023-08-01T13:46:17;23.20;99.90
9497;DHT22;4786;51.270;4.456;2023-08-01T13:48:44;23.20;99.90
9497;DHT22;4786;51.270;4.456;2023-08-01T13:51:10;23.30;99.90
9497;DHT22;4786;51.270;4.456;2023-08-01T13:53:36;23.20;99.90
9497;DHT22;4786;51.270;4.456;2023-08-01T13:56:10;23.10;99.90
9497;DHT22;4786;51.270;4.456;2023-08-01T13:58:40;23.00;99.90
9497;DHT22;4786;51.270;4.456;2023-08-01T14:01:09;22.90;99.90
9497;DHT22;4786;51.270;4.456;2023-08-01T14:03:38;22.90;99.90
9497;DHT22;4786;51.270;4.456;2023-08-01T14:06:08;22.90;99.90
9497;DHT22;4786;51.270;4.456;2023-08-01T14:08:35;22.80;99.90
9497;DHT22;4786;51.270;4.456;2023-08-01T14:11:05;22.80;99.90
9497;DHT22;4786;51.270;4.456;2023-08-01T14:13:32;22.80;99.90
9497;DHT22;4786;51.270;4.456;2023-08-01T14:15:59;22.90;99.90
9497;DHT22;4786;51.270;4.456;2023-08-01T14:18:25;23.00;99.90
9497;DHT22;4786;51.270;4.456;2023-08-01T14:20:51;22.90;99.90
9497;DHT22;4786;51.270;4.456;2023-08-01T14:23:18;22.80;99.90
9497;DHT22;4786;51.270;4.456;2023-08-01T14:25:45;22.90;99.90
9497;DHT22;4786;51.270;4.456;2023-08-01T14:28:11;23.00;99.90
9497;DHT22;4786;51.270;4.456;2023-08-01T14:30:39;23.10;99.90
9497;DHT22;4786;51.270;4.456;2023-08-01T14:33:07;23.00;99.90
9497;DHT22;4786;51.270;4.456;2023-08-01T14:35:37;22.80;99.90
9497;DHT22;4786;51.270;4.456;2023-08-01T14:38:04;22.70;99.90
9497;DHT22;4786;51.270;4.456;2023-08-01T14:40:30;22.50;99.90
9497;DHT22;4786;51.270;4.456;2023-08-01T14:42:56;22.30;99.90
9497;DHT22;4786;51.270;4.456;2023-08-01T14:45:23;22.00;99.90
9497;DHT22;4786;51.270;4.456;2023-08-01T14:47:48;21.90;99.90
9497;DHT22;4786;51.270;4.456;2023-08-01T14:50:15;22.00;99.90
9497;DHT22;4786;51.270;4.456;2023-08-01T14:52:41;21.90;99.90
9497;DHT22;4786;51.270;4.456;2023-08-01T14:55:08;22.00;99.90
9497;DHT22;4786;51.270;4.456;2023-08-01T14:57:34;22.10;99.90
9497;DHT22;4786;51.270;4.456;2023-08-01T15:00:00;22.10;99.90
9497;DHT22;4786;51.270;4.456;2023-08-01T15:02:26;22.10;99.90
9497;DHT22;4786;51.270;4.456;2023-08-01T15:04:53;22.10;99.90
9497;DHT22;4786;51.270;4.456;2023-08-01T15:07:24;22.20;99.90
9497;DHT22;4786;51.270;4.456;2023-08-01T15:09:51;22.40;99.90
9497;DHT22;4786;51.270;4.456;2023-08-01T15:12:20;22.40;99.90
9497;DHT22;4786;51.270;4.456;2023-08-01T15:14:50;22.50;99.90
9497;DHT22;4786;51.270;4.456;2023-08-01T15:17:16;22.70;99.90
9497;DHT22;4786;51.270;4.456;2023-08-01T15:19:42;22.70;99.90
9497;DHT22;4786;51.270;4.456;2023-08-01T15:22:09;22.50;99.90
9497;DHT22;4786;51.270;4.456;2023-08-01T15:24:35;22.30;99.90
9497;DHT22;4786;51.270;4.456;2023-08-01T15:27:01;22.30;99.90
9497;DHT22;4786;51.270;4.456;2023-08-01T15:29:27;22.20;99.90
9497;DHT22;4786;51.270;4.456;2023-08-01T15:31:53;22.20;99.90
9497;DHT22;4786;51.270;4.456;2023-08-01T15:34:19;22.20;99.90
9497;DHT22;4786;51.270;4.456;2023-08-01T15:36:48;22.30;99.90
9497;DHT22;4786;51.270;4.456;2023-08-01T15:39:14;22.30;99.90
9497;DHT22;4786;51.270;4.456;2023-08-01T15:41:41;22.40;99.90
9497;DHT22;4786;51.270;4.456;2023-08-01T15:44:07;22.40;99.90
9497;DHT22;4786;51.270;4.456;2023-08-01T15:46:34;22.40;99.90
9497;DHT22;4786;51.270;4.456;2023-08-01T15:49:00;22.30;99.90
9497;DHT22;4786;51.270;4.456;2023-08-01T15:51:26;22.30;99.90
9497;DHT22;4786;51.270;4.456;2023-08-01T15:53:52;22.20;99.90
9497;DHT22;4786;51.270;4.456;2023-08-01T15:56:19;22.10;99.90
9497;DHT22;4786;51.270;4.456;2023-08-01T15:58:45;22.10;99.90
9497;DHT22;4786;51.270;4.456;2023-08-01T16:01:11;22.10;99.90
9497;DHT22;4786;51.270;4.456;2023-08-01T16:03:38;22.00;99.90
9497;DHT22;4786;51.270;4.456;2023-08-01T16:06:05;22.00;99.90
9497;DHT22;4786;51.270;4.456;2023-08-01T16:08:31;22.00;99.90